createdAt,value
2023-03-17T00:01:59.750Z,8.75
2023-03-17T00:04:28.321Z,6.88
2023-03-17T00:06:58.210Z,6.15
2023-03-17T00:09:26.135Z,9.93
2023-03-17T00:11:55.185Z,12.60
2023-03-17T00:14:23.180Z,9.38
2023-03-17T00:16:53.064Z,11.45
2023-03-17T00:19:40.050Z,9.88
2023-03-17T00:22:18.969Z,10.47
2023-03-17T00:24:47.094Z,8.68
2023-03-17T00:27:15.663Z,8.27
2023-03-17T00:29:43.759Z,10.18
2023-03-17T00:32:22.212Z,7.88
2023-03-17T00:34:52.769Z,7.77
2023-03-17T00:37:20.684Z,9.40
2023-03-17T00:39:52.191Z,8.18
2023-03-17T00:42:20.981Z,8.27
2023-03-17T00:44:48.764Z,9.85
2023-03-17T00:47:16.820Z,8.37
2023-03-17T00:49:46.145Z,6.35
2023-03-17T00:52:14.972Z,9.93
2023-03-17T00:54:43.096Z,10.85
2023-03-17T00:57:12.922Z,9.27
2023-03-17T00:59:43.487Z,8.13
2023-03-17T01:02:15.542Z,8.90
2023-03-17T01:04:52.911Z,9.18
2023-03-17T01:07:31.295Z,7.57
2023-03-17T01:10:00.215Z,7.47
2023-03-17T01:12:28.389Z,5.97
2023-03-17T01:14:57.766Z,10.45
2023-03-17T01:17:29.182Z,8.88
2023-03-17T01:19:58.280Z,7.93
2023-03-17T01:22:26.054Z,7.72
2023-03-17T01:24:54.052Z,9.47
2023-03-17T01:27:22.204Z,10.90
2023-03-17T01:29:54.349Z,12.23
2023-03-17T01:32:22.698Z,7.20
2023-03-17T01:34:52.603Z,9.35
2023-03-17T01:37:22.634Z,8.10
2023-03-17T01:39:51.813Z,5.82
2023-03-17T01:42:21.174Z,8.63
2023-03-17T01:45:03.057Z,8.13
2023-03-17T01:47:32.702Z,5.75
2023-03-17T01:50:07.255Z,6.13
2023-03-17T01:52:40.675Z,10.20
2023-03-17T01:55:12.499Z,8.23
2023-03-17T01:57:46.488Z,9.70
2023-03-17T02:00:20.826Z,6.82
2023-03-17T02:02:52.291Z,5.33
2023-03-17T02:05:35.020Z,7.15
2023-03-17T02:08:11.644Z,8.43
2023-03-17T02:10:41.511Z,4.53
2023-03-17T02:13:12.829Z,5.40
2023-03-17T02:15:44.384Z,7.47
2023-03-17T02:18:13.932Z,6.35
2023-03-17T02:20:41.693Z,8.15
2023-03-17T02:23:11.289Z,4.97
2023-03-17T02:25:42.380Z,7.90
2023-03-17T02:28:16.681Z,6.80
2023-03-17T02:30:45.205Z,6.82
2023-03-17T02:33:13.108Z,7.05
2023-03-17T02:35:41.881Z,7.13
2023-03-17T02:38:10.024Z,8.95
2023-03-17T02:40:38.071Z,8.47
2023-03-17T02:43:06.327Z,6.10
2023-03-17T02:45:34.135Z,6.05
2023-03-17T02:48:02.948Z,7.15
2023-03-17T02:50:32.175Z,12.85
2023-03-17T02:52:59.988Z,7.20
2023-03-17T02:55:28.536Z,4.45
2023-03-17T02:57:56.398Z,7.32
2023-03-17T03:00:24.555Z,6.53
2023-03-17T03:02:52.426Z,7.05
2023-03-17T03:05:20.642Z,5.23
2023-03-17T03:07:48.536Z,8.88
2023-03-17T03:10:16.917Z,5.85
2023-03-17T03:12:45.234Z,6.38
2023-03-17T03:15:13.755Z,6.75
2023-03-17T03:17:42.675Z,6.23
2023-03-17T03:20:12.064Z,5.13
2023-03-17T03:22:40.099Z,6.30
2023-03-17T03:25:09.023Z,6.38
2023-03-17T03:27:37.099Z,7.95
2023-03-17T03:30:08.416Z,6.83
2023-03-17T03:32:36.390Z,4.97
2023-03-17T03:35:04.766Z,5.53
2023-03-17T03:37:32.640Z,5.25
2023-03-17T03:40:00.787Z,3.28
2023-03-17T03:42:28.733Z,5.40
2023-03-17T03:44:56.458Z,4.57
2023-03-17T03:47:24.615Z,5.85
2023-03-17T03:49:52.485Z,6.30
2023-03-17T03:52:20.347Z,5.82
2023-03-17T03:54:48.121Z,10.50
2023-03-17T03:57:16.177Z,5.97
2023-03-17T03:59:44.062Z,6.03
2023-03-17T04:02:12.009Z,11.23
2023-03-17T04:04:40.197Z,9.43
2023-03-17T04:07:08.699Z,5.10
2023-03-17T04:09:37.554Z,7.38
2023-03-17T04:12:06.417Z,6.18
2023-03-17T04:14:34.482Z,6.22
2023-03-17T04:17:02.654Z,7.40
2023-03-17T04:19:30.935Z,10.27
2023-03-17T04:21:59.420Z,5.93
2023-03-17T04:24:28.096Z,7.00
2023-03-17T04:26:56.630Z,6.00
2023-03-17T04:29:24.479Z,4.88
2023-03-17T04:31:53.108Z,4.93
2023-03-17T04:34:21.166Z,9.13
2023-03-17T04:36:49.753Z,4.38
2023-03-17T04:39:18.536Z,6.80
2023-03-17T04:41:46.978Z,6.45
2023-03-17T04:44:14.889Z,6.87
2023-03-17T04:46:42.859Z,6.28
2023-03-17T04:49:10.764Z,6.93
2023-03-17T04:51:42.507Z,8.60
2023-03-17T04:54:10.537Z,4.97
2023-03-17T04:56:38.714Z,4.20
2023-03-17T04:59:06.847Z,6.43
2023-03-17T05:01:34.631Z,6.03
2023-03-17T05:04:02.656Z,6.80
2023-03-17T05:06:30.636Z,6.85
2023-03-17T05:08:58.518Z,8.73
2023-03-17T05:11:26.457Z,6.57
2023-03-17T05:13:54.419Z,6.97
2023-03-17T05:16:22.335Z,10.05
2023-03-17T05:18:50.351Z,7.05
2023-03-17T05:21:18.186Z,8.83
2023-03-17T05:23:46.068Z,6.65
2023-03-17T05:26:13.892Z,7.85
2023-03-17T05:28:41.793Z,6.88
2023-03-17T05:31:11.202Z,10.73
2023-03-17T05:33:39.825Z,9.50
2023-03-17T05:36:08.479Z,12.68
2023-03-17T05:38:39.755Z,11.35
2023-03-17T05:41:07.660Z,11.98
2023-03-17T05:43:35.829Z,13.68
2023-03-17T05:46:04.790Z,12.13
2023-03-17T05:48:33.222Z,14.07
2023-03-17T05:51:01.034Z,14.05
2023-03-17T05:53:30.116Z,13.38
2023-03-17T05:55:58.075Z,20.75
2023-03-17T05:58:25.985Z,14.43
2023-03-17T06:00:54.232Z,14.95
2023-03-17T06:03:22.567Z,19.73
2023-03-17T06:05:50.506Z,17.55
2023-03-17T06:08:18.368Z,17.02
2023-03-17T06:10:47.669Z,16.27
2023-03-17T06:13:15.921Z,16.15
2023-03-17T06:15:44.525Z,15.05
2023-03-17T06:18:12.382Z,17.92
2023-03-17T06:20:40.514Z,14.25
2023-03-17T06:23:08.574Z,8.83
2023-03-17T06:25:37.357Z,9.65
2023-03-17T06:28:06.073Z,16.38
2023-03-17T06:30:37.062Z,6.95
2023-03-17T06:33:07.406Z,8.18
2023-03-17T06:35:35.640Z,5.03
2023-03-17T06:38:03.957Z,6.68
2023-03-17T06:40:32.710Z,8.00
2023-03-17T06:43:01.563Z,10.10
2023-03-17T06:45:29.701Z,6.85
2023-03-17T06:47:57.905Z,9.10
2023-03-17T06:50:26.010Z,8.40
2023-03-17T06:52:54.027Z,5.28
2023-03-17T06:55:21.819Z,5.35
2023-03-17T06:57:51.192Z,6.03
2023-03-17T07:00:21.391Z,8.87
2023-03-17T07:02:50.262Z,5.50
2023-03-17T07:05:18.337Z,5.30
2023-03-17T07:07:46.776Z,5.78
2023-03-17T07:10:16.166Z,6.78
2023-03-17T07:12:44.506Z,5.53
2023-03-17T07:15:15.525Z,6.13
2023-03-17T07:17:44.705Z,8.57
2023-03-17T07:20:14.434Z,6.20
2023-03-17T07:22:43.292Z,10.95
2023-03-17T07:25:11.381Z,4.93
2023-03-17T07:27:39.542Z,11.70
2023-03-17T07:30:08.203Z,6.70
2023-03-17T07:32:36.585Z,7.85
2023-03-17T07:35:05.548Z,6.95
2023-03-17T07:37:33.732Z,4.70
2023-03-17T07:40:01.600Z,7.65
2023-03-17T07:42:30.438Z,8.32
2023-03-17T07:44:58.482Z,6.10
2023-03-17T07:47:26.496Z,5.32
2023-03-17T07:49:55.089Z,5.67
2023-03-17T07:52:23.287Z,6.05
2023-03-17T07:54:52.387Z,8.70
2023-03-17T07:57:20.665Z,5.00
2023-03-17T07:59:48.976Z,8.07
2023-03-17T08:02:18.681Z,4.67
2023-03-17T08:04:46.537Z,7.07
2023-03-17T08:07:16.494Z,5.18
2023-03-17T08:09:44.706Z,8.23
2023-03-17T08:12:12.834Z,8.00
2023-03-17T08:14:42.209Z,7.07
2023-03-17T08:17:11.714Z,7.13
2023-03-17T08:19:39.943Z,9.43
2023-03-17T08:22:08.357Z,5.80
2023-03-17T08:24:37.569Z,7.22
2023-03-17T08:27:05.495Z,11.30
2023-03-17T08:29:33.891Z,10.00
2023-03-17T08:32:02.412Z,7.70
2023-03-17T08:34:31.204Z,7.43
2023-03-17T08:37:01.348Z,5.53
2023-03-17T08:39:31.067Z,7.40
2023-03-17T08:41:59.897Z,8.20
2023-03-17T08:44:27.952Z,6.93
2023-03-17T08:46:57.116Z,6.78
2023-03-17T08:49:25.380Z,6.10
2023-03-17T08:51:53.641Z,10.20
2023-03-17T08:54:21.771Z,9.13
2023-03-17T08:56:49.645Z,7.47
2023-03-17T08:59:17.780Z,7.28
2023-03-17T09:01:46.210Z,8.18
2023-03-17T09:04:14.235Z,6.23
2023-03-17T09:06:51.888Z,7.10
2023-03-17T09:09:31.637Z,7.95
2023-03-17T09:12:00.377Z,8.43
2023-03-17T09:14:29.567Z,7.03
2023-03-17T09:16:58.173Z,7.20
2023-03-17T09:19:26.617Z,8.05
2023-03-17T09:21:54.594Z,7.10
2023-03-17T09:24:22.907Z,10.45
2023-03-17T09:26:50.839Z,6.18
2023-03-17T09:29:18.923Z,6.50
2023-03-17T09:31:47.601Z,6.63
2023-03-17T09:34:15.890Z,4.50
2023-03-17T09:36:43.828Z,9.73
2023-03-17T09:39:12.189Z,7.82
2023-03-17T09:41:50.221Z,4.77
2023-03-17T09:44:39.114Z,5.55
2023-03-17T09:47:37.701Z,7.35
2023-03-17T09:50:13.552Z,5.70
2023-03-17T09:52:42.318Z,8.20
2023-03-17T09:55:25.566Z,7.23
2023-03-17T09:58:01.143Z,6.07
2023-03-17T10:00:30.230Z,6.75
2023-03-17T10:02:59.453Z,6.22
2023-03-17T10:05:35.426Z,5.20
2023-03-17T10:08:31.668Z,6.73
2023-03-17T10:11:39.180Z,10.13
2023-03-17T10:14:33.989Z,4.32
2023-03-17T10:17:19.558Z,5.75
2023-03-17T10:20:06.217Z,5.60
2023-03-17T10:22:48.797Z,5.93
2023-03-17T10:25:37.801Z,9.02
2023-03-17T10:28:17.776Z,6.22
2023-03-17T10:30:46.117Z,5.35
2023-03-17T10:33:14.224Z,6.15
2023-03-17T10:35:45.264Z,9.27
2023-03-17T10:38:20.760Z,4.25
2023-03-17T10:41:00.412Z,5.63
2023-03-17T10:43:39.031Z,6.13
2023-03-17T10:46:16.404Z,5.82
2023-03-17T10:48:53.953Z,9.47
2023-03-17T10:51:33.927Z,7.18
2023-03-17T10:54:08.471Z,6.88
2023-03-17T10:56:40.262Z,6.53
2023-03-17T10:59:16.757Z,5.38
2023-03-17T11:01:52.138Z,5.67
2023-03-17T11:04:28.590Z,6.68
2023-03-17T11:06:59.306Z,5.22
2023-03-17T11:09:30.777Z,7.53
2023-03-17T11:12:09.343Z,6.53
2023-03-17T11:14:37.864Z,6.27
2023-03-17T11:17:28.270Z,5.72
2023-03-17T11:20:14.076Z,5.28
2023-03-17T11:22:49.115Z,5.03
2023-03-17T11:25:23.884Z,6.57
2023-03-17T11:28:07.125Z,4.70
2023-03-17T11:30:42.938Z,5.05
2023-03-17T11:33:34.207Z,5.57
2023-03-17T11:36:13.481Z,5.32
2023-03-17T11:39:09.174Z,5.75
2023-03-17T11:41:42.519Z,5.83
2023-03-17T11:44:30.184Z,5.43
2023-03-17T11:47:25.401Z,7.57
2023-03-17T11:50:12.954Z,4.93
2023-03-17T11:52:46.666Z,6.70
2023-03-17T11:55:22.877Z,5.77
2023-03-17T11:57:53.800Z,5.85
2023-03-17T12:00:35.206Z,6.05
2023-03-17T12:03:21.226Z,5.93
2023-03-17T12:05:55.122Z,8.25
2023-03-17T12:08:42.856Z,5.53
2023-03-17T12:11:15.769Z,6.15
2023-03-17T12:13:51.953Z,4.50
2023-03-17T12:16:30.129Z,5.07
2023-03-17T12:19:15.507Z,5.32
2023-03-17T12:22:01.896Z,8.53
2023-03-17T12:24:40.438Z,4.93
2023-03-17T12:27:23.405Z,6.82
2023-03-17T12:30:26.393Z,5.00
2023-03-17T12:33:20.438Z,4.55
2023-03-17T12:35:48.552Z,5.27
2023-03-17T12:38:22.175Z,5.20
2023-03-17T12:41:06.031Z,5.30
2023-03-17T12:43:48.200Z,5.43
2023-03-17T12:46:53.411Z,4.88
2023-03-17T12:49:42.726Z,4.03
2023-03-17T12:52:48.005Z,8.32
2023-03-17T12:55:18.903Z,6.22
2023-03-17T12:57:58.948Z,6.53
2023-03-17T13:00:37.800Z,5.72
2023-03-17T13:03:27.064Z,7.90
2023-03-17T13:06:03.856Z,5.10
2023-03-17T13:08:39.602Z,4.25
2023-03-17T13:11:39.658Z,5.53
2023-03-17T13:14:45.091Z,6.53
2023-03-17T13:17:20.305Z,4.70
2023-03-17T13:19:57.190Z,5.38
2023-03-17T13:22:36.995Z,7.30
2023-03-17T13:25:35.609Z,5.25
2023-03-17T13:28:12.822Z,5.57
2023-03-17T13:30:40.884Z,5.93
2023-03-17T13:33:11.680Z,7.28
2023-03-17T13:36:04.406Z,6.00
2023-03-17T13:38:35.377Z,6.30
2023-03-17T13:41:15.294Z,9.18
2023-03-17T13:43:46.136Z,5.20
2023-03-17T13:46:34.766Z,4.95
2023-03-17T13:49:24.478Z,8.05
2023-03-17T13:52:14.527Z,7.20
2023-03-17T13:55:10.419Z,4.70
2023-03-17T13:57:40.061Z,6.03
2023-03-17T14:00:28.326Z,5.43
2023-03-17T14:03:13.631Z,5.80
2023-03-17T14:05:43.209Z,6.75
2023-03-17T14:08:38.478Z,7.30
2023-03-17T14:11:22.978Z,8.17
2023-03-17T14:14:26.043Z,8.15
2023-03-17T14:17:15.044Z,6.53
2023-03-17T14:20:04.829Z,5.32
2023-03-17T14:22:33.252Z,7.93
2023-03-17T14:25:02.159Z,6.23
2023-03-17T14:27:34.675Z,5.25
2023-03-17T14:30:17.146Z,6.88
2023-03-17T14:33:12.364Z,6.15
2023-03-17T14:35:43.704Z,5.63
2023-03-17T14:38:27.703Z,6.73
2023-03-17T14:41:14.038Z,6.13
2023-03-17T14:43:43.156Z,5.28
2023-03-17T14:46:31.074Z,3.70
2023-03-17T14:49:05.605Z,6.15
2023-03-17T14:51:39.411Z,4.50
2023-03-17T14:54:29.329Z,6.75
2023-03-17T14:57:08.997Z,4.15
2023-03-17T14:59:41.113Z,4.43
2023-03-17T15:02:33.390Z,8.25
2023-03-17T15:05:22.827Z,5.57
2023-03-17T15:07:50.645Z,7.53
2023-03-17T15:10:21.786Z,4.53
2023-03-17T15:12:49.997Z,4.90
2023-03-17T15:15:26.127Z,6.15
2023-03-17T15:17:59.885Z,9.10
2023-03-17T15:20:31.375Z,7.28
2023-03-17T15:23:28.864Z,6.60
2023-03-17T15:25:58.280Z,8.13
2023-03-17T15:28:31.916Z,6.30
2023-03-17T15:31:13.169Z,6.10
2023-03-17T15:33:42.539Z,7.45
2023-03-17T15:36:31.248Z,4.97
2023-03-17T15:39:03.853Z,7.97
2023-03-17T15:41:31.873Z,8.23
2023-03-17T15:43:59.761Z,6.53
2023-03-17T15:46:31.450Z,6.03
2023-03-17T15:48:59.709Z,8.25
2023-03-17T15:51:27.516Z,5.30
2023-03-17T15:53:55.630Z,7.57
2023-03-17T15:56:23.640Z,6.10
2023-03-17T15:58:52.866Z,6.45
2023-03-17T16:01:21.715Z,6.95
2023-03-17T16:03:49.947Z,7.90
2023-03-17T16:06:20.153Z,7.20
2023-03-17T16:08:48.619Z,9.27
2023-03-17T16:11:23.142Z,5.45
2023-03-17T16:13:51.316Z,7.80
2023-03-17T16:16:27.451Z,6.45
2023-03-17T16:18:55.568Z,6.95
2023-03-17T16:21:23.434Z,7.03
2023-03-17T16:23:51.710Z,7.18
2023-03-17T16:26:19.713Z,8.68
2023-03-17T16:28:50.594Z,7.45
2023-03-17T16:31:25.562Z,8.15
2023-03-17T16:33:54.761Z,7.53
2023-03-17T16:36:24.946Z,9.57
2023-03-17T16:38:53.664Z,8.90
2023-03-17T16:41:28.675Z,7.35
2023-03-17T16:44:02.315Z,8.13
2023-03-17T16:46:35.387Z,11.60
2023-03-17T16:49:04.548Z,8.80
2023-03-17T16:51:32.486Z,9.35
2023-03-17T16:54:00.587Z,9.70
2023-03-17T16:56:28.636Z,10.77
2023-03-17T16:58:56.651Z,8.00
2023-03-17T17:01:27.012Z,7.15
2023-03-17T17:03:55.611Z,6.82
2023-03-17T17:06:23.952Z,9.05
2023-03-17T17:08:52.377Z,5.55
2023-03-17T17:11:21.394Z,12.00
2023-03-17T17:13:50.459Z,8.02
2023-03-17T17:16:27.676Z,7.72
2023-03-17T17:18:55.893Z,8.90
2023-03-17T17:21:24.057Z,8.10
2023-03-17T17:23:53.128Z,7.07
2023-03-17T17:26:22.093Z,7.22
2023-03-17T17:28:49.924Z,8.68
2023-03-17T17:31:18.322Z,7.95
2023-03-17T17:33:46.302Z,9.70
2023-03-17T17:36:16.409Z,14.33
2023-03-17T17:38:45.377Z,8.43
2023-03-17T17:41:13.872Z,7.47
2023-03-17T17:43:41.908Z,9.30
2023-03-17T17:46:16.018Z,13.07
2023-03-17T17:48:44.149Z,9.17
2023-03-17T17:51:11.805Z,10.88
2023-03-17T17:53:39.639Z,7.90
2023-03-17T17:56:08.653Z,6.30
2023-03-17T17:58:36.382Z,8.20
2023-03-17T18:01:06.237Z,5.83
2023-03-17T18:03:34.246Z,8.90
2023-03-17T18:06:02.402Z,7.90
2023-03-17T18:08:30.375Z,8.23
2023-03-17T18:10:58.321Z,10.73
2023-03-17T18:13:26.631Z,7.70
2023-03-17T18:15:55.093Z,8.63
2023-03-17T18:18:23.062Z,9.63
2023-03-17T18:20:52.873Z,9.40
2023-03-17T18:23:21.426Z,9.88
2023-03-17T18:25:49.924Z,11.97
2023-03-17T18:28:18.360Z,8.90
2023-03-17T18:30:46.740Z,9.90
2023-03-17T18:33:18.484Z,10.88
2023-03-17T18:35:49.314Z,8.98
2023-03-17T18:38:17.343Z,8.87
2023-03-17T18:40:45.345Z,8.50
2023-03-17T18:43:13.279Z,12.18
2023-03-17T18:45:40.994Z,9.65
2023-03-17T18:48:08.917Z,8.15
2023-03-17T18:50:37.548Z,11.10
2023-03-17T18:53:05.558Z,12.48
2023-03-17T18:55:33.253Z,13.57
2023-03-17T18:58:01.204Z,11.93
2023-03-17T19:00:29.126Z,8.05
2023-03-17T19:02:57.286Z,12.20
2023-03-17T19:05:26.013Z,10.60
2023-03-17T19:07:53.975Z,10.25
2023-03-17T19:10:21.869Z,8.82
2023-03-17T19:12:51.041Z,13.75
2023-03-17T19:15:19.972Z,16.17
2023-03-17T19:17:48.294Z,14.02
2023-03-17T19:20:16.237Z,10.75
2023-03-17T19:22:44.307Z,11.93
2023-03-17T19:25:12.279Z,10.73
2023-03-17T19:27:40.838Z,9.90
2023-03-17T19:30:09.585Z,10.55
2023-03-17T19:32:37.554Z,10.80
2023-03-17T19:35:08.009Z,9.75
2023-03-17T19:37:38.234Z,10.40
2023-03-17T19:40:10.236Z,12.83
2023-03-17T19:42:38.302Z,11.75
2023-03-17T19:45:06.890Z,10.00
2023-03-17T19:47:35.032Z,11.35
2023-03-17T19:50:02.856Z,11.00
2023-03-17T19:52:30.908Z,8.67
2023-03-17T19:54:59.041Z,13.35
2023-03-17T19:57:27.390Z,11.35
2023-03-17T19:59:55.329Z,8.82
2023-03-17T20:02:24.809Z,7.40
2023-03-17T20:04:52.608Z,8.13
2023-03-17T20:07:21.877Z,8.43
2023-03-17T20:09:50.664Z,14.38
2023-03-17T20:12:19.385Z,16.70
2023-03-17T20:14:50.298Z,11.13
2023-03-17T20:17:20.814Z,10.30
2023-03-17T20:19:49.529Z,10.93
2023-03-17T20:22:17.820Z,12.75
2023-03-17T20:24:46.713Z,25.98
2023-03-17T20:27:17.973Z,30.73
2023-03-17T20:29:55.269Z,21.00
2023-03-17T20:32:24.384Z,17.33
2023-03-17T20:34:52.976Z,10.27
2023-03-17T20:37:21.488Z,11.25
2023-03-17T20:39:54.633Z,12.27
2023-03-17T20:42:23.274Z,10.93
2023-03-17T20:44:53.379Z,10.03
2023-03-17T20:47:21.950Z,11.27
2023-03-17T20:49:51.315Z,11.85
2023-03-17T20:52:19.279Z,11.13
2023-03-17T20:54:47.716Z,13.63
2023-03-17T20:57:16.454Z,8.73
2023-03-17T20:59:44.464Z,11.40
2023-03-17T21:02:16.441Z,12.23
2023-03-17T21:04:48.159Z,14.15
2023-03-17T21:07:18.566Z,11.50
2023-03-17T21:09:47.368Z,10.27
2023-03-17T21:12:20.356Z,8.07
2023-03-17T21:14:49.044Z,14.00
2023-03-17T21:17:18.587Z,12.15
2023-03-17T21:19:49.319Z,8.75
2023-03-17T21:22:18.280Z,12.07
2023-03-17T21:24:46.947Z,11.20
2023-03-17T21:27:15.178Z,11.73
2023-03-17T21:29:43.333Z,13.15
2023-03-17T21:32:11.481Z,10.48
2023-03-17T21:34:39.802Z,11.17
2023-03-17T21:37:08.502Z,11.75
2023-03-17T21:39:36.799Z,12.50
2023-03-17T21:42:06.437Z,11.57
2023-03-17T21:45:07.249Z,7.85
2023-03-17T21:47:43.470Z,10.07
2023-03-17T21:50:12.252Z,12.25
2023-03-17T21:52:40.189Z,13.13
2023-03-17T21:55:08.636Z,13.75
2023-03-17T21:57:41.333Z,12.82
2023-03-17T22:00:18.306Z,15.20
2023-03-17T22:02:51.070Z,11.95
2023-03-17T22:05:19.701Z,12.27
2023-03-17T22:07:47.531Z,14.98
2023-03-17T22:10:15.612Z,12.95
2023-03-17T22:12:43.907Z,14.67
2023-03-17T22:15:12.616Z,12.80
2023-03-17T22:17:40.553Z,14.82
2023-03-17T22:20:09.420Z,16.55
2023-03-17T22:22:37.448Z,13.57
2023-03-17T22:25:06.804Z,16.97
2023-03-17T22:27:34.869Z,12.52
2023-03-17T22:30:02.974Z,16.65
2023-03-17T22:32:31.490Z,12.63
2023-03-17T22:34:59.513Z,16.42
2023-03-17T22:37:28.423Z,15.47
2023-03-17T22:39:56.591Z,18.95
2023-03-17T22:42:24.504Z,16.23
2023-03-17T22:44:52.534Z,16.80
2023-03-17T22:47:20.339Z,12.60
2023-03-17T22:49:48.462Z,15.87
2023-03-17T22:52:16.260Z,16.40
2023-03-17T22:54:44.287Z,15.15
2023-03-17T22:57:12.355Z,13.23
2023-03-17T22:59:40.737Z,13.43
2023-03-17T23:02:09.148Z,12.20
2023-03-17T23:04:37.295Z,15.25
2023-03-17T23:07:06.168Z,12.10
2023-03-17T23:09:34.652Z,10.27
2023-03-17T23:12:02.977Z,15.02
2023-03-17T23:14:31.234Z,11.90
2023-03-17T23:16:59.149Z,10.65
2023-03-17T23:19:27.976Z,15.20
2023-03-17T23:21:57.181Z,13.75
2023-03-17T23:24:25.058Z,10.27
2023-03-17T23:26:53.228Z,9.80
2023-03-17T23:29:21.867Z,11.02
2023-03-17T23:31:49.749Z,11.38
2023-03-17T23:34:17.595Z,12.25
2023-03-17T23:36:45.294Z,10.18
2023-03-17T23:39:13.460Z,14.30
2023-03-17T23:41:42.111Z,10.90
2023-03-17T23:44:11.574Z,8.68
2023-03-17T23:46:39.540Z,6.68
2023-03-17T23:49:10.693Z,8.27
2023-03-17T23:51:39.682Z,9.23
2023-03-17T23:54:08.742Z,8.63
2023-03-17T23:56:36.858Z,11.65
2023-03-17T23:59:04.843Z,12.77
